Time;durP1;ratioP1;P1;durP2;ratioP2;P2;SDS_P1;SDS_P2;PMS_P1;PMS_P2;Temp;Humidity;BMP_temperature;BMP_pressure;BME280_temperature;BME280_humidity;BME280_pressure;Samples;Min_cycle;Max_cycle;Signal;HPM_P1;HPM_P2
2021/01/12 00:02:21;;;;;;;31.02;16.67;;;;;;;-1.96;77.01;99097.66;5052953;28;20055;-66
2021/01/12 00:04:47;;;;;;;33.90;17.08;;;;;;;-1.78;78.36;99097.47;5051572;28;20023;-66
2021/01/12 00:07:13;;;;;;;29.27;16.08;;;;;;;-1.85;76.51;99101.47;5052879;28;20449;-66
2021/01/12 00:09:39;;;;;;;28.52;16.25;;;;;;;-1.77;77.82;99093.25;5052629;28;20021;-70
2021/01/12 00:12:05;;;;;;;27.75;16.48;;;;;;;-1.74;76.57;99093.34;5052677;28;20071;-74
2021/01/12 00:14:30;;;;;;;29.92;16.83;;;;;;;-2.07;78.49;99088.81;5052395;28;20029;-70
2021/01/12 00:16:56;;;;;;;33.35;17.20;;;;;;;-1.99;78.52;99091.59;5053084;28;20115;-74
2021/01/12 00:19:21;;;;;;;28.98;15.85;;;;;;;-1.92;77.38;99074.13;5052575;28;20052;-74
2021/01/12 00:21:47;;;;;;;37.95;17.55;;;;;;;-2.00;79.15;99080.59;5052582;28;20032;-67
2021/01/12 00:24:12;;;;;;;27.48;16.23;;;;;;;-2.12;77.94;99070.00;5052298;28;20104;-70
2021/01/12 00:26:37;;;;;;;27.83;15.43;;;;;;;-2.26;79.03;99071.16;5052884;28;20048;-74
2021/01/12 00:29:03;;;;;;;28.90;16.00;;;;;;;-2.30;79.01;99061.72;5052484;28;20060;-74
2021/01/12 00:31:28;;;;;;;32.95;17.48;;;;;;;-2.36;78.08;99060.66;5052225;28;20075;-74
2021/01/12 00:33:53;;;;;;;28.90;16.60;;;;;;;-2.33;77.67;99054.84;5052140;28;20087;-74
2021/01/12 00:36:19;;;;;;;33.78;16.63;;;;;;;-2.40;78.31;99058.81;5052379;28;20078;-74
2021/01/12 00:38:44;;;;;;;30.58;15.82;;;;;;;-2.38;77.50;99054.66;5052235;28;20044;-74
2021/01/12 00:41:09;;;;;;;26.70;14.80;;;;;;;-2.22;79.53;99050.19;5052060;28;20025;-71
2021/01/12 00:43:35;;;;;;;27.90;15.80;;;;;;;-2.17;79.29;99041.06;5052221;28;20029;-64
2021/01/12 00:46:00;;;;;;;26.30;15.38;;;;;;;-2.06;79.42;99044.84;5052302;28;20028;-71
2021/01/12 00:48:25;;;;;;;26.90;16.00;;;;;;;-2.37;78.81;99043.72;5052216;28;20024;-70
2021/01/12 00:50:51;;;;;;;32.25;16.38;;;;;;;-2.10;82.11;99043.00;5051817;28;20032;-70
2021/01/12 00:53:16;;;;;;;29.30;16.17;;;;;;;-2.08;77.87;99026.13;5052023;28;20032;-64
2021/01/12 00:55:41;;;;;;;28.77;15.00;;;;;;;-2.27;78.25;99017.03;5051940;28;20032;-64
2021/01/12 00:58:07;;;;;;;29.02;15.57;;;;;;;-2.24;77.52;99012.03;5050818;28;20056;-64
2021/01/12 07:00:37;;;;;;;14.98;6.40;;;;;;;1.50;73.50;98536.19;5856497;23;20506;-72
2021/01/12 07:03:04;;;;;;;5.38;3.95;;;;;;;1.50;73.48;98546.41;4975384;28;20046;-72
2021/01/12 07:05:41;;;;;;;8.35;4.88;;;;;;;1.54;73.72;98543.03;4975432;28;20443;-72
2021/01/12 07:08:09;;;;;;;6.53;4.20;;;;;;;1.54;73.34;98548.13;4975188;28;20110;-72
2021/01/12 07:10:43;;;;;;;7.97;4.43;;;;;;;1.56;73.11;98531.16;4975061;28;20509;-72
2021/01/12 07:13:08;;;;;;;6.72;4.15;;;;;;;1.67;73.01;98539.81;4975287;28;20085;-72
2021/01/12 07:15:42;;;;;;;4.53;3.67;;;;;;;1.67;72.86;98534.72;5012247;23;20046;-71
2021/01/12 07:18:07;;;;;;;5.57;3.67;;;;;;;1.73;73.20;98524.56;4973817;28;20030;-71
2021/01/12 07:20:36;;;;;;;5.40;4.43;;;;;;;1.68;73.08;98521.09;4974858;28;20434;-71
2021/01/12 07:23:03;;;;;;;4.75;3.97;;;;;;;1.72;73.02;98512.63;4975048;28;20515;-71
2021/01/12 07:25:31;;;;;;;5.45;3.95;;;;;;;1.79;73.01;98523.81;4953520;28;20123;-71
2021/01/12 07:28:02;;;;;;;4.57;3.42;;;;;;;1.86;72.60;98519.63;4936587;29;20626;-71
2021/01/12 07:30:29;;;;;;;5.32;3.22;;;;;;;1.85;72.79;98493.22;4936265;29;20028;-71
2021/01/12 07:32:56;;;;;;;3.58;3.10;;;;;;;1.83;73.38;98509.34;4936576;29;20023;-71
2021/01/12 07:35:22;;;;;;;7.40;3.80;;;;;;;1.83;74.06;98506.81;4936359;29;20020;-71
2021/01/12 07:37:47;;;;;;;3.95;3.50;;;;;;;1.78;74.95;98502.50;4936320;29;20036;-72
2021/01/12 07:40:13;;;;;;;5.88;3.35;;;;;;;1.77;75.09;98485.47;4936343;29;20397;-71
2021/01/12 07:42:56;;;;;;;4.40;3.70;;;;;;;1.77;75.71;98494.81;4936094;29;20498;-71
2021/01/12 07:45:27;;;;;;;5.75;3.95;;;;;;;1.71;76.10;98500.72;4936286;29;20035;-71
2021/01/12 07:47:54;;;;;;;4.55;3.67;;;;;;;1.70;76.56;98496.47;4936139;29;20038;-71
2021/01/12 07:50:25;;;;;;;4.65;3.25;;;;;;;1.74;76.30;98485.44;4936082;29;20038;-71
2021/01/12 07:52:50;;;;;;;6.35;3.35;;;;;;;1.83;76.52;98494.03;4936131;29;20424;-72
2021/01/12 07:55:16;;;;;;;4.45;3.15;;;;;;;1.80;76.05;98480.41;4935994;29;20024;-72
2021/01/12 07:57:42;;;;;;;5.45;3.95;;;;;;;1.83;76.28;98494.03;4935893;29;20027;-72
2021/01/12 08:00:10;;;;;;;4.82;3.50;;;;;;;1.86;76.90;98482.16;4936058;29;20027;-71
2021/01/12 08:02:39;;;;;;;5.30;3.83;;;;;;;1.86;76.49;98488.97;4935777;28;20115;-73
2021/01/12 08:05:07;;;;;;;6.40;4.10;;;;;;;1.87;76.88;98490.69;4935901;29;20111;-71
2021/01/12 08:07:32;;;;;;;4.50;3.08;;;;;;;1.84;76.80;98475.31;4935739;29;20493;-71
2021/01/12 08:09:58;;;;;;;4.85;3.53;;;;;;;1.97;75.85;98487.38;4935687;29;20028;-72
2021/01/12 08:12:24;;;;;;;6.10;3.63;;;;;;;1.89;76.40;98486.47;4935486;29;20051;-72
2021/01/12 08:14:51;;;;;;;5.55;4.03;;;;;;;1.93;76.42;98483.09;4935543;29;20059;-72
2021/01/12 08:17:24;;;;;;;6.13;3.38;;;;;;;2.00;75.76;98482.34;4935706;29;20489;-72
2021/01/12 08:19:49;;;;;;;5.07;3.75;;;;;;;2.04;76.20;98484.09;4935143;29;20460;-72
2021/01/12 08:22:17;;;;;;;4.95;3.28;;;;;;;1.99;75.70;98480.63;4935507;29;20028;-72
2021/01/12 08:24:45;;;;;;;5.35;3.90;;;;;;;2.06;76.10;98469.63;4935735;29;20045;-72
2021/01/12 08:27:11;;;;;;;5.07;3.83;;;;;;;2.07;76.51;98484.09;4935491;29;20479;-72
2021/01/12 08:29:36;;;;;;;4.50;3.75;;;;;;;2.08;76.22;98473.06;4935322;29;20032;-68
2021/01/12 08:32:13;;;;;;;4.65;3.83;;;;;;;2.08;76.46;98472.19;4935287;29;20027;-67
2021/01/12 08:34:57;;;;;;;5.32;3.63;;;;;;;2.03;76.36;98467.00;4935229;29;20019;-67
2021/01/12 08:37:23;;;;;;;5.22;3.92;;;;;;;2.08;76.64;98474.72;4935377;29;20504;-67
2021/01/12 08:39:51;;;;;;;6.13;3.72;;;;;;;2.04;76.71;98478.97;4935152;29;20055;-67
2021/01/12 08:42:21;;;;;;;6.57;4.03;;;;;;;2.06;77.18;98472.16;4935275;29;20425;-67
2021/01/12 08:44:46;;;;;;;;;;;;;;;2.20;77.40;98451.88;4935371;29;20489;-67
2021/01/12 08:47:12;;;;;;;12.20;5.05;;;;;;;2.08;76.91;98464.50;4935237;29;19953;-67
2021/01/12 08:49:38;;;;;;;11.30;5.72;;;;;;;2.08;77.73;98470.50;4934957;29;20036;-67
2021/01/12 08:52:05;;;;;;;11.00;5.80;;;;;;;2.12;77.88;98462.00;4935238;29;20031;-67
2021/01/12 08:54:32;;;;;;;6.90;4.13;;;;;;;2.01;78.25;98458.50;4934884;29;20110;-67
2021/01/12 08:56:59;;;;;;;75.75;16.35;;;;;;;2.09;77.78;98472.22;4935168;29;20056;-68
2021/01/12 08:59:32;;;;;;;7.55;4.32;;;;;;;2.18;77.41;98456.13;4935005;29;20028;-67
2021/01/12 09:01:59;;;;;;;6.40;4.88;;;;;;;2.12;77.70;98451.78;4934892;29;20027;-67
2021/01/12 09:04:27;;;;;;;5.00;3.90;;;;;;;2.21;77.86;98449.31;4934815;29;20024;-68
2021/01/12 09:07:04;;;;;;;5.07;3.95;;;;;;;2.15;78.18;98449.28;4935113;29;20031;-67
2021/01/12 09:09:29;;;;;;;5.82;3.75;;;;;;;2.13;78.58;98448.41;4934807;29;20503;-67
2021/01/12 09:11:59;;;;;;;4.57;3.25;;;;;;;2.27;77.89;98445.97;4934727;29;20031;-69
2021/01/12 09:14:25;;;;;;;4.85;3.58;;;;;;;2.31;77.68;98442.59;4934479;29;20400;-68
2021/01/12 09:17:04;;;;;;;4.88;3.72;;;;;;;2.34;77.61;98441.78;4934839;29;20046;-68
2021/01/12 09:19:37;;;;;;;4.78;3.65;;;;;;;2.34;77.99;98441.78;4934206;29;20038;-68
2021/01/12 09:22:16;;;;;;;3.97;3.22;;;;;;;2.44;77.67;98439.31;4926071;29;20514;-67
2021/01/12 09:24:55;;;;;;;41.13;13.93;;;;;;;2.29;77.92;98440.03;4925897;29;20023;-67
2021/01/12 09:27:28;;;;;;;6.00;4.03;;;;;;;2.40;78.04;98431.59;4926329;29;20063;-67
2021/01/12 09:29:54;;;;;;;40.45;14.00;;;;;;;2.26;78.56;98434.03;4924944;29;20039;-67
2021/01/12 09:32:32;;;;;;;21.52;8.20;;;;;;;2.20;79.19;98429.72;4928448;29;20038;-62
2021/01/12 09:34:58;;;;;;;9.27;5.13;;;;;;;2.18;79.68;98428.88;4929970;29;20027;-62
2021/01/12 09:37:24;;;;;;;55.33;23.65;;;;;;;2.19;80.43;98428.03;4929711;29;20031;-62
2021/01/12 09:39:58;;;;;;;21.00;11.27;;;;;;;2.15;81.00;98431.38;4929911;29;20038;-62
2021/01/12 09:42:25;;;;;;;10.07;5.18;;;;;;;2.03;82.28;98431.25;4929817;29;20035;-63
2021/01/12 09:44:55;;;;;;;7.57;4.68;;;;;;;2.11;81.39;98424.53;4929720;29;20027;-62
2021/01/12 09:47:21;;;;;;;;;;;;;;;2.06;81.96;98421.06;4930350;29;20028;-63
2021/01/12 09:49:46;;;;;;;4.22;3.50;;;;;;;2.03;82.25;98421.03;4929612;29;19925;-63
2021/01/12 09:52:12;;;;;;;4.25;3.30;;;;;;;2.04;83.40;98420.22;4929446;29;20482;-63
2021/01/12 09:54:45;;;;;;;5.10;3.63;;;;;;;2.12;83.22;98421.13;4929429;29;20121;-63
2021/01/12 09:57:13;;;;;;;5.43;3.38;;;;;;;2.00;83.24;98410.78;4929688;29;20090;-63
2021/01/12 09:59:39;;;;;;;6.97;4.20;;;;;;;1.85;85.05;98413.19;4929390;29;20031;-63
2021/01/12 10:02:04;;;;;;;4.53;3.58;;;;;;;1.94;84.61;98405.63;4929309;29;20047;-63
2021/01/12 10:04:30;;;;;;;7.43;3.35;;;;;;;1.88;85.48;98415.75;4929427;29;20026;-63
2021/01/12 10:06:57;;;;;;;8.00;4.05;;;;;;;1.72;86.52;98410.50;4928308;29;20036;-63
2021/01/12 10:09:22;;;;;;;8.02;5.22;;;;;;;1.73;86.63;98407.09;4929678;29;20043;-63
2021/01/12 10:11:48;;;;;;;5.32;3.70;;;;;;;1.74;86.89;98419.03;4929140;29;20401;-63
2021/01/12 10:14:13;;;;;;;5.93;3.83;;;;;;;1.71;86.79;98398.56;4928969;29;20042;-63
2021/01/12 10:16:38;;;;;;;8.23;4.00;;;;;;;1.74;87.83;98398.63;4929220;29;20035;-63
2021/01/12 10:19:04;;;;;;;8.20;5.32;;;;;;;1.64;88.85;98409.53;4929177;29;20174;-63
2021/01/12 10:21:29;;;;;;;6.80;3.50;;;;;;;1.84;87.96;98388.47;4929220;29;20074;-63
2021/01/12 10:23:54;;;;;;;4.93;4.10;;;;;;;1.72;88.47;98395.16;4929187;29;20452;-63
2021/01/12 10:26:20;;;;;;;4.72;3.47;;;;;;;1.75;88.11;98394.38;4928992;29;20024;-63
2021/01/12 10:28:48;;;;;;;5.22;3.80;;;;;;;1.77;88.63;98385.00;4929089;29;21017;-64
2021/01/12 10:31:15;;;;;;;6.85;4.03;;;;;;;1.73;87.96;98376.44;4928811;29;20077;-64
2021/01/12 10:33:41;;;;;;;9.50;5.70;;;;;;;1.66;88.93;98374.69;4929010;29;20038;-63
2021/01/12 10:36:07;;;;;;;6.32;4.00;;;;;;;1.67;89.63;98355.97;4928756;29;20056;-63
2021/01/12 10:38:32;;;;;;;5.13;3.40;;;;;;;1.68;89.08;98357.66;4927518;29;20040;-63
2021/01/12 10:40:58;;;;;;;13.38;6.57;;;;;;;1.62;89.06;98362.72;4928658;29;20032;-63
2021/01/12 10:43:24;;;;;;;4.57;3.20;;;;;;;1.67;89.02;98350.84;4928210;29;20437;-63
2021/01/12 10:45:50;;;;;;;15.00;7.50;;;;;;;1.62;89.46;98352.50;4928734;29;20031;-63
2021/01/12 10:48:16;;;;;;;5.40;3.30;;;;;;;1.71;89.20;98350.06;4928647;29;20043;-63
2021/01/12 10:50:41;;;;;;;6.03;3.78;;;;;;;1.60;89.59;98349.09;4928352;29;20436;-63
2021/01/12 10:53:06;;;;;;;10.85;5.45;;;;;;;1.63;89.51;98338.91;4928723;29;20027;-63
2021/01/12 10:55:31;;;;;;;8.45;3.42;;;;;;;1.66;89.99;98331.28;4928462;29;20039;-63
2021/01/12 10:57:57;;;;;;;16.20;8.02;;;;;;;1.66;89.58;98318.50;4928449;29;21030;-63
2021/01/12 11:00:23;;;;;;;4.50;3.47;;;;;;;1.67;89.63;98332.97;4928471;29;20028;-63
2021/01/12 11:02:48;;;;;;;3.60;2.45;;;;;;;1.76;89.16;98330.53;4928699;29;20404;-63
2021/01/12 11:05:14;;;;;;;12.00;6.10;;;;;;;1.79;90.15;98315.25;4928647;29;20032;-64
2021/01/12 11:07:40;;;;;;;48.03;20.45;;;;;;;1.80;89.05;98319.50;4928257;29;20531;-63
2021/01/12 11:10:08;;;;;;;4.22;3.45;;;;;;;1.84;89.53;98312.72;4928286;29;20055;-63
2021/01/12 11:12:34;;;;;;;8.32;4.13;;;;;;;1.74;89.73;98301.56;4928083;29;20115;-63
2021/01/12 11:14:59;;;;;;;6.18;3.78;;;;;;;1.80;90.63;98314.38;4928281;29;20035;-63
2021/01/12 11:17:25;;;;;;;27.17;10.95;;;;;;;1.84;89.88;98301.63;4927991;29;20063;-63
2021/01/12 11:19:51;;;;;;;8.65;3.30;;;;;;;1.90;89.37;98307.66;4928394;29;20119;-63
2021/01/12 11:22:16;;;;;;;5.20;3.60;;;;;;;1.84;89.30;98296.53;4928017;29;20505;-64
2021/01/12 11:24:45;;;;;;;5.00;2.95;;;;;;;1.80;91.22;98301.63;4927999;29;20020;-63
2021/01/12 11:27:11;;;;;;;6.93;4.18;;;;;;;1.78;89.71;98298.19;4928018;29;20261;-63
2021/01/12 11:29:37;;;;;;;12.15;5.35;;;;;;;1.75;90.85;98285.41;4928080;29;20035;-63
2021/01/12 11:32:03;;;;;;;6.93;3.95;;;;;;;1.71;90.77;98276.00;4927411;29;20027;-63
2021/01/12 11:34:29;;;;;;;3.97;3.25;;;;;;;1.80;90.84;98276.09;4927982;29;20027;-63
2021/01/12 11:36:54;;;;;;;6.30;3.10;;;;;;;1.87;90.53;98281.22;4927727;29;20535;-63
2021/01/12 11:39:20;;;;;;;5.60;2.97;;;;;;;1.81;89.29;98271.81;4927747;29;20404;-63
2021/01/12 11:41:54;;;;;;;3.85;2.72;;;;;;;1.79;89.08;98248.84;4927665;29;20027;-63
2021/01/12 11:44:21;;;;;;;4.18;3.15;;;;;;;1.85;89.92;98267.59;4941208;29;20028;-63
2021/01/12 11:46:48;;;;;;;15.60;8.25;;;;;;;1.86;89.38;98264.22;4927349;29;20662;-63
2021/01/12 11:49:13;;;;;;;6.82;4.78;;;;;;;1.87;89.37;98265.91;4927580;29;20043;-63
2021/01/12 11:51:51;;;;;;;7.70;4.85;;;;;;;1.82;89.46;98252.25;4927407;29;20035;-63
2021/01/12 11:54:17;;;;;;;4.72;2.95;;;;;;;1.84;89.54;98255.66;4926481;29;20058;-63
2021/01/12 11:56:50;;;;;;;3.13;2.58;;;;;;;1.81;90.04;98266.72;4927624;29;20734;-63
2021/01/12 11:59:16;;;;;;;15.93;7.30;;;;;;;1.83;89.30;98259.06;4927231;29;20035;-63
2021/01/12 12:01:49;;;;;;;3.83;2.83;;;;;;;1.92;89.67;98228.50;4927130;29;20039;-63
2021/01/12 12:04:16;;;;;;;6.82;3.10;;;;;;;1.86;89.73;98243.78;4927031;29;20054;-63
2021/01/12 12:06:45;;;;;;;13.93;6.95;;;;;;;1.84;88.86;98236.09;4927427;29;20083;-63
2021/01/12 12:09:10;;;;;;;8.32;2.55;;;;;;;1.84;89.89;98248.00;4927033;29;20031;-63
2021/01/12 12:11:39;;;;;;;6.88;2.95;;;;;;;1.85;89.42;98227.59;4926917;29;20116;-63
2021/01/12 12:14:09;;;;;;;2.87;2.40;;;;;;;1.84;89.46;98241.22;4926845;29;20042;-63
2021/01/12 12:16:36;;;;;;;6.53;4.13;;;;;;;1.97;90.56;98234.47;4927305;29;20039;-64
2021/01/12 12:19:03;;;;;;;8.30;4.45;;;;;;;1.99;90.52;98243.03;4926820;29;20068;-63
2021/01/12 12:21:29;;;;;;;4.43;2.55;;;;;;;2.01;89.15;98244.72;4926749;29;20409;-63
2021/01/12 12:23:54;;;;;;;6.78;2.95;;;;;;;2.07;90.06;98228.59;4926738;29;20031;-63
2021/01/12 12:26:20;;;;;;;4.57;3.03;;;;;;;1.98;90.06;98221.75;4927290;29;20028;-63
2021/01/12 12:28:45;;;;;;;5.13;2.63;;;;;;;1.94;89.85;98227.66;4926724;29;20390;-63
2021/01/12 12:31:12;;;;;;;4.10;2.85;;;;;;;2.04;90.68;98228.59;4925679;29;20485;-63
2021/01/12 12:33:38;;;;;;;6.13;2.67;;;;;;;2.04;88.98;98218.38;4926697;29;20035;-63
2021/01/12 12:36:08;;;;;;;2.80;2.50;;;;;;;2.11;89.49;98217.53;4926634;29;20440;-63
2021/01/12 12:38:36;;;;;;;3.40;2.88;;;;;;;1.99;89.91;98220.88;4926418;29;20040;-63
2021/01/12 12:41:06;;;;;;;4.88;2.65;;;;;;;1.97;91.08;98206.38;4925629;29;20441;-63
2021/01/12 12:43:32;;;;;;;2.80;2.30;;;;;;;2.15;88.95;98211.63;4926665;29;20057;-63
2021/01/12 12:45:57;;;;;;;3.03;2.00;;;;;;;2.08;89.48;98225.22;4916135;29;20023;-63
2021/01/12 12:48:22;;;;;;;3.55;2.13;;;;;;;2.02;89.45;98209.81;4926679;29;20145;-63
2021/01/12 12:50:48;;;;;;;3.53;2.05;;;;;;;2.07;89.35;98218.38;4926470;29;20449;-67
2021/01/12 12:53:13;;;;;;;4.05;2.45;;;;;;;2.15;89.31;98211.63;4926343;29;20068;-67
2021/01/12 12:55:39;;;;;;;4.80;1.83;;;;;;;2.01;89.15;98213.22;4925734;29;20024;-67
2021/01/12 12:58:05;;;;;;;3.65;2.92;;;;;;;1.91;89.18;98212.31;4926512;29;20449;-67
2021/01/12 13:00:30;;;;;;;4.40;2.28;;;;;;;1.91;90.17;98217.41;4926050;29;20031;-67
2021/01/12 13:02:56;;;;;;;6.82;3.10;;;;;;;1.94;90.56;98212.34;4925496;29;20033;-67
2021/01/12 13:05:22;;;;;;;8.35;5.05;;;;;;;1.95;90.35;98206.38;4925961;29;20028;-67
2021/01/12 13:07:47;;;;;;;6.25;3.90;;;;;;;1.84;90.26;98194.34;4926247;29;20028;-67
2021/01/12 13:10:13;;;;;;;5.35;2.47;;;;;;;1.90;90.91;98207.19;4925637;29;20038;-62
2021/01/12 13:12:42;;;;;;;3.72;2.10;;;;;;;1.87;91.08;98197.78;4925380;29;20114;-63
2021/01/12 13:15:08;;;;;;;5.65;3.47;;;;;;;1.89;90.80;98198.69;4942315;23;20055;-65
2021/01/12 13:17:41;;;;;;;2.20;2.00;;;;;;;1.92;90.14;98196.13;4907295;29;20738;-64
2021/01/12 13:20:08;;;;;;;9.35;4.25;;;;;;;1.92;91.00;98187.63;4906084;29;20047;-71
2021/01/12 13:22:33;;;;;;;4.53;2.78;;;;;;;1.88;91.02;98189.28;4906249;29;20035;-70
2021/01/12 13:24:59;;;;;;;2.72;1.90;;;;;;;1.92;90.14;98198.69;4905782;29;20036;-64
2021/01/12 13:27:27;;;;;;;29.38;8.43;;;;;;;1.79;91.82;98197.75;4901191;29;20107;-65
2021/01/12 13:29:52;;;;;;;14.95;5.03;;;;;;;1.92;91.78;98192.72;4901440;29;20036;-65
2021/01/12 13:32:18;;;;;;;5.63;2.65;;;;;;;1.76;91.93;98182.41;4900991;29;20024;-65
2021/01/12 13:34:43;;;;;;;2.83;1.77;;;;;;;1.90;91.27;98196.97;4901239;29;20040;-65
2021/01/12 13:37:08;;;;;;;18.05;5.03;;;;;;;1.93;91.18;98194.44;4901085;29;20401;-63
2021/01/12 13:39:34;;;;;;;10.55;3.00;;;;;;;2.02;91.09;98189.38;4901129;29;20040;-64
2021/01/12 13:41:59;;;;;;;5.43;2.63;;;;;;;1.90;90.71;98204.66;4900969;29;20027;-69
2021/01/12 13:44:24;;;;;;;1.48;1.20;;;;;;;1.90;90.74;98191.88;4901209;29;20031;-69
2021/01/12 13:46:50;;;;;;;9.80;3.45;;;;;;;2.04;91.65;98203.03;4901068;29;20561;-71
2021/01/12 13:49:15;;;;;;;10.40;4.03;;;;;;;1.99;91.16;98204.72;4901111;29;20800;-69
2021/01/12 13:51:42;;;;;;;6.75;2.92;;;;;;;1.83;91.85;98195.22;4915563;29;20072;-64
2021/01/12 13:54:08;;;;;;;6.60;3.28;;;;;;;2.08;91.43;98204.78;4899936;29;20414;-63
2021/01/12 13:56:38;;;;;;;8.60;2.38;;;;;;;1.97;91.51;98207.22;4900969;29;20032;-69
2021/01/12 13:59:07;;;;;;;2.83;1.20;;;;;;;2.01;90.50;98208.13;4900964;29;20032;-71
2021/01/12 14:01:34;;;;;;;3.17;1.38;;;;;;;1.89;91.21;98198.69;4899468;29;20135;-69
2021/01/12 14:04:00;;;;;;;1.58;1.48;;;;;;;1.87;91.89;98209.72;4900627;29;20052;-69
2021/01/12 14:06:25;;;;;;;5.40;1.30;;;;;;;1.75;92.21;98206.25;4900865;29;20033;-71
2021/01/12 14:08:52;;;;;;;3.67;1.45;;;;;;;1.90;91.94;98212.31;4901165;29;20036;-71
2021/01/12 14:11:18;;;;;;;1.50;1.20;;;;;;;1.79;91.90;98210.53;4900949;29;20471;-64
2021/01/12 14:13:43;;;;;;;3.10;1.38;;;;;;;1.89;91.75;98214.00;4901078;29;20032;-64
2021/01/12 14:16:08;;;;;;;4.10;1.48;;;;;;;1.91;91.94;98214.00;4900987;29;21349;-72
2021/01/12 14:18:34;;;;;;;1.42;1.20;;;;;;;1.90;91.37;98209.75;4903070;29;20040;-63
2021/01/12 14:21:00;;;;;;;1.58;1.30;;;;;;;1.96;91.55;98210.63;4902738;29;20036;-70
2021/01/12 14:23:26;;;;;;;1.20;1.10;;;;;;;1.96;91.83;98214.91;4904254;29;20043;-64
2021/01/12 14:25:52;;;;;;;1.90;1.45;;;;;;;1.71;93.00;98217.25;4904450;29;20031;-72
2021/01/12 14:28:19;;;;;;;3.10;1.08;;;;;;;1.88;91.83;98217.38;4904143;29;20075;-66
2021/01/12 14:30:45;;;;;;;2.38;1.10;;;;;;;1.83;91.42;98211.38;4903954;29;20459;-64
2021/01/12 14:33:10;;;;;;;2.05;1.10;;;;;;;1.84;91.27;98223.34;4904187;29;20040;-64
2021/01/12 14:35:36;;;;;;;5.10;1.40;;;;;;;1.79;91.84;98228.41;4903740;29;20507;-64
2021/01/12 14:38:03;;;;;;;3.38;1.38;;;;;;;1.83;91.72;98230.97;4904174;29;20055;-64
2021/01/12 14:40:38;;;;;;;1.92;1.33;;;;;;;1.79;92.05;98228.41;4902527;29;20450;-64
2021/01/12 14:43:04;;;;;;;4.03;1.50;;;;;;;1.74;92.78;98230.06;4904420;29;20032;-63
2021/01/12 14:45:29;;;;;;;3.65;1.60;;;;;;;1.85;92.26;98236.97;4903861;29;20104;-63
2021/01/12 14:47:55;;;;;;;1.77;1.65;;;;;;;1.78;92.64;98236.88;4903723;29;20039;-64
2021/01/12 14:50:21;;;;;;;3.35;1.60;;;;;;;1.70;93.27;98246.22;4903863;29;20036;-64
2021/01/12 14:52:57;;;;;;;1.77;1.30;;;;;;;1.65;92.23;98247.88;4903917;29;20161;-66
2021/01/12 14:55:22;;;;;;;1.98;1.00;;;;;;;1.72;92.50;98247.06;4901332;29;20115;-70
2021/01/12 14:57:48;;;;;;;1.70;1.23;;;;;;;1.31;94.29;98243.28;4903652;29;20046;-64
2021/01/12 15:00:14;;;;;;;10.30;1.95;;;;;;;1.58;93.18;98237.56;4903344;29;20400;-66
2021/01/12 15:02:40;;;;;;;7.97;2.13;;;;;;;1.59;93.10;98240.13;4903892;29;20036;-72
2021/01/12 15:05:06;;;;;;;3.30;1.70;;;;;;;1.40;93.19;98244.25;4903515;29;20140;-69
2021/01/12 15:07:32;;;;;;;2.25;1.33;;;;;;;1.50;93.57;98234.97;4902850;29;20060;-72
2021/01/12 15:09:57;;;;;;;3.25;1.88;;;;;;;1.40;93.48;98239.13;4903410;29;20118;-66
2021/01/12 15:12:23;;;;;;;2.75;2.00;;;;;;;1.32;93.89;98237.34;4903443;29;20039;-66
2021/01/12 15:14:48;;;;;;;3.97;1.50;;;;;;;1.25;94.36;98237.25;4903149;29;20056;-64
2021/01/12 15:17:13;;;;;;;2.78;1.40;;;;;;;1.23;94.87;98241.50;4903411;29;20493;-67
2021/01/12 15:19:39;;;;;;;3.38;1.60;;;;;;;1.13;95.20;98239.69;4903005;29;20124;-72
2021/01/12 15:22:05;;;;;;;5.63;2.00;;;;;;;1.12;95.72;98249.91;4890441;29;20108;-72
2021/01/12 15:24:31;;;;;;;3.13;2.10;;;;;;;1.32;94.60;98239.88;4880172;29;20044;-72
2021/01/12 15:26:56;;;;;;;9.32;2.42;;;;;;;1.26;94.83;98246.66;4880118;29;20033;-64
2021/01/12 15:29:22;;;;;;;3.65;1.73;;;;;;;1.25;94.90;98244.91;4879958;29;20036;-64
2021/01/12 15:31:56;;;;;;;5.97;2.40;;;;;;;1.02;95.12;98251.50;4879846;29;20029;-72
2021/01/12 15:34:21;;;;;;;6.53;4.72;;;;;;;0.92;96.07;98250.53;4879836;29;20056;-72
2021/01/12 15:36:47;;;;;;;13.95;8.25;;;;;;;1.02;95.90;98248.94;4879924;29;20104;-72
2021/01/12 15:39:12;;;;;;;14.05;7.80;;;;;;;0.91;96.12;98242.84;4880006;29;20056;-64
2021/01/12 15:41:37;;;;;;;12.52;7.55;;;;;;;1.00;96.05;98250.59;4879573;29;20382;-64
2021/01/12 15:44:03;;;;;;;15.75;10.32;;;;;;;1.02;96.08;98252.34;4879800;29;20077;-70
2021/01/12 15:46:28;;;;;;;11.27;8.15;;;;;;;1.12;95.81;98244.78;4879585;29;20032;-73
2021/01/12 15:48:54;;;;;;;15.38;7.65;;;;;;;1.10;95.89;98247.31;4879915;29;20033;-72
2021/01/12 15:51:19;;;;;;;12.02;6.18;;;;;;;1.12;96.14;98247.34;4890693;29;20474;-73
2021/01/12 15:53:44;;;;;;;20.88;11.38;;;;;;;1.01;96.11;98249.75;4876028;29;20036;-73
2021/01/12 15:56:10;;;;;;;25.08;15.50;;;;;;;1.08;96.19;98251.53;4877387;29;20029;-64
2021/01/12 15:58:35;;;;;;;29.60;17.48;;;;;;;1.07;96.17;98252.41;4876157;29;20029;-64
2021/01/12 16:01:02;;;;;;;21.20;13.05;;;;;;;1.12;96.17;98248.19;4895320;29;20068;-70
2021/01/12 16:03:30;;;;;;;12.77;6.50;;;;;;;1.18;95.79;98247.41;4902665;29;20034;-70
2021/01/12 16:05:55;;;;;;;29.58;15.20;;;;;;;1.19;95.67;98244.84;4902442;29;20115;-73
2021/01/12 16:08:21;;;;;;;20.65;10.75;;;;;;;1.22;96.01;98255.09;4902404;29;20028;-70
2021/01/12 16:10:47;;;;;;;12.10;6.93;;;;;;;1.19;95.99;98254.22;4902264;29;20088;-70
2021/01/12 16:13:13;;;;;;;16.30;8.20;;;;;;;1.21;96.16;98253.41;4902111;29;20035;-66
2021/01/12 16:15:39;;;;;;;12.70;8.63;;;;;;;1.24;96.15;98243.22;4901941;29;20044;-73
2021/01/12 16:18:05;;;;;;;12.90;7.18;;;;;;;1.23;96.46;98255.97;4916526;29;20849;-64
2021/01/12 16:20:30;;;;;;;9.68;6.07;;;;;;;1.15;96.52;98255.00;4902098;29;20032;-66
2021/01/12 16:22:57;;;;;;;7.35;5.30;;;;;;;1.17;95.64;98249.09;4902004;29;20367;-70
2021/01/12 16:25:25;;;;;;;10.93;7.40;;;;;;;1.12;96.11;98253.28;4902246;29;20024;-66
2021/01/12 16:27:55;;;;;;;20.65;12.15;;;;;;;1.12;96.57;98257.56;4901930;29;20039;-66
2021/01/12 16:30:25;;;;;;;15.30;9.63;;;;;;;1.21;96.67;98260.16;4901952;29;20044;-71
2021/01/12 16:32:57;;;;;;;24.08;15.75;;;;;;;1.11;97.53;98261.75;4901897;29;20454;-70
2021/01/12 16:35:24;;;;;;;22.27;13.93;;;;;;;1.21;97.46;98263.59;4901878;29;20116;-71
2021/01/12 16:37:49;;;;;;;26.52;16.95;;;;;;;1.16;96.96;98264.38;4902287;29;20032;-73
2021/01/12 16:40:17;;;;;;;44.97;26.80;;;;;;;1.13;97.23;98270.31;4901399;29;20082;-66
2021/01/12 16:42:49;;;;;;;32.92;17.88;;;;;;;1.16;97.35;98270.34;4901492;29;20486;-66
2021/01/12 16:45:23;;;;;;;27.52;16.17;;;;;;;1.25;97.42;98270.44;4901645;29;20390;-72
2021/01/12 16:50:13;;;;;;;19.63;11.70;;;;;;;1.43;96.82;98263.81;5088273;27;20379;-66
2021/01/12 16:52:46;;;;;;;12.38;9.07;;;;;;;1.44;97.04;98270.63;5087918;28;20214;-72
2021/01/12 16:55:12;;;;;;;16.52;13.18;;;;;;;1.50;97.05;98281.78;5085599;28;20024;-72
2021/01/12 16:57:42;;;;;;;14.65;12.45;;;;;;;1.48;97.10;98272.38;5080558;28;20028;-69
2021/01/12 17:00:08;;;;;;;12.00;10.07;;;;;;;1.42;97.40;98273.16;5084476;28;20043;-64
2021/01/12 17:02:35;;;;;;;19.35;11.20;;;;;;;1.44;97.40;98270.63;5087375;28;20492;-64
2021/01/12 17:05:13;;;;;;;12.20;8.90;;;;;;;1.45;97.55;98277.44;5087840;28;20507;-65
2021/01/12 17:07:40;;;;;;;14.35;9.88;;;;;;;1.50;97.68;98275.81;5087837;28;20028;-65
2021/01/12 17:10:11;;;;;;;11.98;7.53;;;;;;;1.40;97.69;98273.97;5087859;28;20106;-74
2021/01/12 17:12:38;;;;;;;15.63;10.73;;;;;;;1.47;97.97;98280.88;5085622;28;20476;-65
2021/01/12 17:15:06;;;;;;;13.30;9.25;;;;;;;1.45;97.79;98282.53;5085966;28;20053;-65
2021/01/12 17:17:41;;;;;;;14.20;9.18;;;;;;;1.52;98.09;98277.53;5087696;28;20039;-64
2021/01/12 17:20:12;;;;;;;11.75;8.50;;;;;;;1.56;97.05;98280.97;5080005;28;20108;-63
2021/01/12 17:22:50;;;;;;;14.48;9.90;;;;;;;1.56;97.34;98282.66;5087272;28;20062;-64
2021/01/12 17:25:17;;;;;;;19.58;12.20;;;;;;;1.55;97.30;98279.25;5083257;28;20268;-64
2021/01/12 17:27:57;;;;;;;16.95;11.07;;;;;;;1.57;97.51;98287.78;5085635;28;20109;-66
2021/01/12 17:30:30;;;;;;;21.20;10.82;;;;;;;1.73;97.06;98287.06;5082324;28;20029;-64
2021/01/12 17:33:01;;;;;;;30.83;14.02;;;;;;;1.82;95.36;98288.00;5081661;28;20032;-65
2021/01/12 17:35:32;;;;;;;45.13;20.98;;;;;;;1.82;96.21;98290.56;5084178;28;20404;-64
2021/01/12 17:38:00;;;;;;;110.38;42.63;;;;;;;1.76;96.04;98289.66;5081919;28;20434;-64
2021/01/12 17:40:27;;;;;;;77.28;32.00;;;;;;;1.97;95.88;98298.34;5087020;28;20049;-65